Station Historical Data
Daily Summary for July 17, 2017 Units:  Metric    English   Both
« Previous Day
Next Day »
Daily Weekly Monthly Yearly Custom
  High: Low: Average:
Temperature: 29.9 °C 20.6 °C 24.7 °C
Dew Point: 23.8 °C 17.9 °C 20.8 °C
Humidity: 94% 63% 80%
Wind Speed: 13.2km/h 0km/h 11.1km/h
Wind Gust: 13.2km/h - -
Wind- - ESE
Pressure: 1017.5 hPa 1014.1 hPa -
Precipitation: 0 mm    
Historical Graphs
 
 
Tabular Data for July 17, 2017
Time Temperature Dew Point Pressure Wind Wind Speed Wind Gust Humidity Rainfall Rate (Hourly) solar Conditions
00:02 23.6 °C 20.9 °C 1014.8 hPa NNE 13.2 km/h   85% 0 mm WeatherDisplay:10.37 W/m2 SCT
00:07 23.6 °C 21.1 °C 1014.4 hPa NNE 13.2 km/h   86% 0 mm WeatherDisplay:10.37 W/m2 SCT
00:12 23.5 °C 21 °C 1014.4 hPa NNE 13.2 km/h   86% 0 mm WeatherDisplay:10.37 W/m2 SCT
00:17 23.4 °C 20.9 °C 1014.4 hPa NNE 13.2 km/h   86% 0 mm WeatherDisplay:10.37 W/m2 SCT
00:23 23.4 °C 20.9 °C 1014.1 hPa NNE 13.2 km/h   86% 0 mm WeatherDisplay:10.37 W/m2 SCT
00:25 23.4 °C 20.9 °C 1014.4 hPa NNE 13.2 km/h   86% 0 mm WeatherDisplay:10.37 W/m2 SCT
00:30 23.3 °C 20.8 °C 1014.4 hPa NNE 13.2 km/h   86% 0 mm WeatherDisplay:10.37 W/m2 SCT
00:35 23.2 °C 20.9 °C 1014.8 hPa NNE 13.2 km/h   87% 0 mm WeatherDisplay:10.37 W/m2 SCT
00:40 23.2 °C 20.9 °C 1014.8 hPa NNE 13.2 km/h   87% 0 mm WeatherDisplay:10.37 W/m2 SCT
00:46 23.2 °C 20.9 °C 1014.8 hPa NNE 13.2 km/h   87% 0 mm WeatherDisplay:10.37 W/m2 SCT
00:51 23.1 °C 20.8 °C 1015.1 hPa NNE 13.2 km/h   87% 0 mm WeatherDisplay:10.37 W/m2 SCT
00:56 23.1 °C 20.9 °C 1015.1 hPa NNE 13.2 km/h   88% 0 mm WeatherDisplay:10.37 W/m2 SCT
01:01 23.1 °C 20.9 °C 1015.1 hPa NNE 13.2 km/h   88% 0 mm WeatherDisplay:10.37 W/m2 SCT
01:06 23.1 °C 20.9 °C 1015.5 hPa NNE 13.2 km/h   88% 0 mm WeatherDisplay:10.37 W/m2 SCT
01:11 23.1 °C 20.9 °C 1015.5 hPa NNE 13.2 km/h   88% 0 mm WeatherDisplay:10.37 W/m2 SCT
01:16 23.2 °C 21.1 °C 1015.5 hPa NNE 13.2 km/h   88% 0 mm WeatherDisplay:10.37 W/m2 SCT
01:21 23.2 °C 21.1 °C 1015.5 hPa NNE 13.2 km/h   88% 0 mm WeatherDisplay:10.37 W/m2 CLR
01:27 23.3 °C 21.4 °C 1015.1 hPa NNE 13.2 km/h   89% 0 mm WeatherDisplay:10.37 W/m2 CLR
01:32 23.3 °C 21.4 °C 1015.1 hPa NNE 13.2 km/h   89% 0 mm WeatherDisplay:10.37 W/m2 BKN
01:37 23.4 °C 21.4 °C 1015.1 hPa NNE 13.2 km/h   89% 0 mm WeatherDisplay:10.37 W/m2 BKN
01:42 23.5 °C 21.4 °C 1015.1 hPa North 13.2 km/h   88% 0 mm WeatherDisplay:10.37 W/m2 BKN
01:47 23.6 °C 21.4 °C 1015.1 hPa North 13.2 km/h   88% 0 mm WeatherDisplay:10.37 W/m2 BKN
01:52 23.6 °C 21.4 °C 1015.1 hPa North 13.2 km/h   88% 0 mm WeatherDisplay:10.37 W/m2 OVC
01:57 23.6 °C 21.4 °C 1015.1 hPa North 13.2 km/h   88% 0 mm WeatherDisplay:10.37 W/m2 OVC
02:02 23.6 °C 21.4 °C 1015.1 hPa North 13.2 km/h   88% 0 mm WeatherDisplay:10.37 W/m2 BKN
02:07 23.6 °C 21.5 °C 1015.1 hPa North 13.2 km/h 13.2 km/h 88% 0 mm WeatherDisplay:10.37 W/m2 BKN
02:12 23.6 °C 21.5 °C 1015.5 hPa ENE 13.2 km/h 13.2 km/h 88% 0 mm WeatherDisplay:10.37 W/m2 BKN
02:17 23.2 °C 20.5 °C 1015.5 hPa West 13.2 km/h   85% 0 mm WeatherDisplay:10.37 W/m2 BKN
02:22 23.2 °C 20.5 °C 1015.5 hPa West 13.2 km/h   85% 0 mm WeatherDisplay:10.37 W/m2 SCT
02:28 23.2 °C 20.5 °C 1015.5 hPa West 13.2 km/h   85% 0 mm WeatherDisplay:10.37 W/m2 SCT
02:33 23.2 °C 20.5 °C 1015.8 hPa North 13.2 km/h   85% 0 mm WeatherDisplay:10.37 W/m2 SCT
02:38 23.2 °C 20.5 °C 1015.8 hPa North 13.2 km/h   85% 0 mm WeatherDisplay:10.37 W/m2 SCT
02:43 23.2 °C 20.5 °C 1015.8 hPa North 13.2 km/h   85% 0 mm WeatherDisplay:10.37 W/m2 SCT
02:48 23.2 °C 20.5 °C 1015.8 hPa North 13.2 km/h   85% 0 mm WeatherDisplay:10.37 W/m2 SCT
02:53 23.2 °C 20.5 °C 1015.8 hPa North 13.2 km/h   85% 0 mm WeatherDisplay:10.37 W/m2 SCT
02:58 23.2 °C 20.5 °C 1015.8 hPa North 13.2 km/h   85% 0 mm WeatherDisplay:10.37 W/m2 SCT
03:03 23.2 °C 20.5 °C 1015.8 hPa North 13.2 km/h   85% 0 mm WeatherDisplay:10.37 W/m2 SCT
03:08 23.2 °C 20.5 °C 1015.8 hPa North 13.2 km/h   85% 0 mm WeatherDisplay:10.37 W/m2 SCT
03:13 23.2 °C 20.5 °C 1015.5 hPa North 13.2 km/h   85% 0 mm WeatherDisplay:10.37 W/m2 SCT
03:18 23.2 °C 20.5 °C 1015.5 hPa North 13.2 km/h   85% 0 mm WeatherDisplay:10.37 W/m2 SCT
03:23 23.2 °C 20.5 °C 1015.5 hPa North 13.2 km/h   85% 0 mm WeatherDisplay:10.37 W/m2 -RA
03:27 23.2 °C 20.5 °C 1015.5 hPa North 13.2 km/h   85% 0 mm WeatherDisplay:10.37 W/m2 -RA
03:32 23.2 °C 20.5 °C 1015.5 hPa North 13.2 km/h   85% 0 mm WeatherDisplay:10.37 W/m2 +RA
03:37 23.2 °C 20.5 °C 1015.5 hPa North 13.2 km/h   85% 0 mm WeatherDisplay:10.37 W/m2 +RA
03:42 23.2 °C 20.5 °C 1015.5 hPa North 13.2 km/h   85% 0 mm WeatherDisplay:10.37 W/m2 +RA
03:47 23.2 °C 20.5 °C 1015.5 hPa North 13.2 km/h   85% 0 mm WeatherDisplay:10.37 W/m2 +RA
03:52 23.2 °C 20.5 °C 1015.1 hPa North 13.2 km/h   85% 0 mm WeatherDisplay:10.37 W/m2 -RA
03:57 23.2 °C 20.5 °C 1015.1 hPa North 13.2 km/h   85% 0 mm WeatherDisplay:10.37 W/m2 -RA
04:02 23.2 °C 20.5 °C 1015.1 hPa North 13.2 km/h   85% 0 mm WeatherDisplay:10.37 W/m2 -RA
04:07 23.2 °C 20.5 °C 1015.1 hPa North 13.2 km/h   85% 0 mm WeatherDisplay:10.37 W/m2 -RA
04:08 23.2 °C 20.5 °C 1015.1 hPa North 13.2 km/h   85% 0 mm WeatherDisplay:10.37 W/m2 -RA
04:13 23.2 °C 20.5 °C 1014.8 hPa North 13.2 km/h   85% 0 mm WeatherDisplay:10.37 W/m2 -RA
04:18 23.2 °C 20.5 °C 1014.4 hPa North 13.2 km/h   85% 0 mm WeatherDisplay:10.37 W/m2 -RA
04:23 23.2 °C 20.5 °C 1014.4 hPa North 13.2 km/h   85% 0 mm WeatherDisplay:10.37 W/m2 BKN
04:28 23.2 °C 20.5 °C 1014.4 hPa North 13.2 km/h   85% 0 mm WeatherDisplay:10.37 W/m2 BKN
04:34 23.2 °C 20.5 °C 1014.1 hPa North 13.2 km/h   85% 0 mm WeatherDisplay:10.37 W/m2 BKN
04:39 23.2 °C 20.5 °C 1014.1 hPa North 13.2 km/h   85% 0 mm WeatherDisplay:10.37 W/m2 BKN
04:44 23.2 °C 20.5 °C 1014.1 hPa North 13.2 km/h   85% 0 mm WeatherDisplay:10.37 W/m2 BKN
04:49 23.2 °C 20.5 °C 1014.4 hPa North 13.2 km/h   85% 0 mm WeatherDisplay:10.37 W/m2 BKN
04:54 23.2 °C 20.5 °C 1014.8 hPa North 13.2 km/h   85% 0 mm WeatherDisplay:10.37 W/m2 -DZ
04:59 23.2 °C 20.5 °C 1014.8 hPa North 13.2 km/h   85% 0 mm WeatherDisplay:10.37 W/m2 -DZ
05:04 23.2 °C 20.5 °C 1014.8 hPa North 13.2 km/h   85% 0 mm WeatherDisplay:10.37 W/m2 -DZ
05:09 23.2 °C 20.5 °C 1014.8 hPa North 13.2 km/h   85% 0 mm WeatherDisplay:10.37 W/m2 -DZ
05:14 23.2 °C 20.5 °C 1014.8 hPa North 13.2 km/h   85% 0 mm WeatherDisplay:10.37 W/m2 -DZ
05:19 23.2 °C 20.5 °C 1014.8 hPa North 13.2 km/h   85% 0 mm WeatherDisplay:10.37 W/m2 -DZ
05:24 23.2 °C 20.5 °C 1014.8 hPa North 13.2 km/h   85% 0 mm WeatherDisplay:10.37 W/m2 SCT
05:29 23.2 °C 20.5 °C 1014.8 hPa North 13.2 km/h   85% 0 mm WeatherDisplay:10.37 W/m2 SCT
05:34 23.2 °C 20.5 °C 1014.8 hPa North 13.2 km/h   85% 0 mm WeatherDisplay:10.37 W/m2 SCT
05:39 23.2 °C 20.5 °C 1014.8 hPa North 13.2 km/h   85% 0 mm WeatherDisplay:10.37 W/m2 SCT
05:45 23.2 °C 20.5 °C 1015.1 hPa Calm     85% 0 mm WeatherDisplay:10.37 W/m2 SCT
05:50 23.2 °C 20.5 °C 1015.1 hPa Calm     85% 0 mm WeatherDisplay:10.37 W/m2 SCT
05:55 23.2 °C 20.5 °C 1014.8 hPa Calm     85% 0 mm WeatherDisplay:10.37 W/m2 SCT
06:00 23.2 °C 20.5 °C 1015.1 hPa Calm     85% 0 mm WeatherDisplay:10.37 W/m2 SCT
06:05 23.2 °C 20.5 °C 1015.1 hPa North 13.2 km/h   85% 0 mm WeatherDisplay:10.37 W/m2 FEW
06:10 23.2 °C 20.5 °C 1015.1 hPa Calm     85% 0 mm WeatherDisplay:10.37 W/m2 FEW
06:15 23.2 °C 20.5 °C 1015.1 hPa Calm     85% 0 mm WeatherDisplay:10.37 W/m2 FEW
06:20 23.2 °C 20.5 °C 1015.1 hPa North 13.2 km/h   85% 0 mm WeatherDisplay:10.37 W/m2 FEW
06:25 23.2 °C 20.5 °C 1015.5 hPa Calm     85% 0 mm WeatherDisplay:10.37 W/m2 FEW
06:30 23.2 °C 20.5 °C 1015.5 hPa Calm     85% 0 mm WeatherDisplay:10.37 W/m2 FEW
06:35 23.2 °C 20.5 °C 1015.8 hPa North 13.2 km/h   85% 0 mm WeatherDisplay:10.37 W/m2 FEW
06:40 23.2 °C 20.5 °C 1015.8 hPa North 13.2 km/h   85% 0 mm WeatherDisplay:10.37 W/m2 FEW
06:45 23.2 °C 20.5 °C 1015.8 hPa North 13.2 km/h   85% 0 mm WeatherDisplay:10.37 W/m2 FEW
06:50 23.2 °C 20.5 °C 1016.1 hPa North 13.2 km/h   85% 0 mm WeatherDisplay:10.37 W/m2 FEW
06:55 23.2 °C 20.5 °C 1016.1 hPa North 13.2 km/h   85% 0 mm WeatherDisplay:10.37 W/m2 FEW
07:00 23.2 °C 20.5 °C 1015.8 hPa North 13.2 km/h   85% 0 mm WeatherDisplay:10.37 W/m2 FEW
07:05 23.2 °C 20.5 °C 1015.8 hPa North 13.2 km/h   85% 0 mm WeatherDisplay:10.37 W/m2 SCT
07:10 23.2 °C 20.5 °C 1015.8 hPa North 13.2 km/h   85% 0 mm WeatherDisplay:10.37 W/m2 SCT
07:15 23.2 °C 20.5 °C 1015.8 hPa North 13.2 km/h   85% 0 mm WeatherDisplay:10.37 W/m2 SCT
07:20 23.2 °C 20.5 °C 1015.8 hPa North 13.2 km/h   85% 0 mm WeatherDisplay:10.37 W/m2 BKN
07:25 23.2 °C 20.5 °C 1015.8 hPa North 13.2 km/h   85% 0 mm WeatherDisplay:10.37 W/m2 BKN
07:30 23.2 °C 20.5 °C 1016.1 hPa North 13.2 km/h   85% 0 mm WeatherDisplay:10.37 W/m2 BKN
07:35 23.2 °C 20.5 °C 1015.8 hPa North 13.2 km/h   85% 0 mm WeatherDisplay:10.37 W/m2 BKN
07:40 23.2 °C 20.5 °C 1015.8 hPa North 13.2 km/h   85% 0 mm WeatherDisplay:10.37 W/m2 BKN
07:45 23.2 °C 20.5 °C 1016.1 hPa North 13.2 km/h   85% 0 mm WeatherDisplay:10.37 W/m2 BKN
07:51 23.2 °C 20.5 °C 1016.1 hPa North 13.2 km/h   85% 0 mm WeatherDisplay:10.37 W/m2 BKN
07:56 23.2 °C 20.5 °C 1016.5 hPa North 13.2 km/h   85% 0 mm WeatherDisplay:10.37 W/m2 BKN
08:01 23.2 °C 20.5 °C 1016.5 hPa North 13.2 km/h   85% 0 mm WeatherDisplay:10.37 W/m2 BKN
08:06 23.2 °C 20.5 °C 1016.5 hPa North 13.2 km/h   85% 0 mm WeatherDisplay:10.37 W/m2 BKN
08:11 23.2 °C 20.5 °C 1016.5 hPa North 13.2 km/h   85% 0 mm WeatherDisplay:10.37 W/m2 BKN
08:16 23.2 °C 20.5 °C 1016.5 hPa North 13.2 km/h   85% 0 mm WeatherDisplay:10.37 W/m2 BKN
08:21 23.2 °C 20.5 °C 1016.8 hPa North 13.2 km/h   85% 0 mm WeatherDisplay:10.37 W/m2 BKN
08:26 23.2 °C 20.5 °C 1016.5 hPa North 13.2 km/h   85% 0 mm WeatherDisplay:10.37 W/m2 BKN
08:31 23.2 °C 20.5 °C 1016.5 hPa North 13.2 km/h   85% 0 mm WeatherDisplay:10.37 W/m2 BKN
08:36 23.2 °C 20.5 °C 1016.5 hPa North 13.2 km/h   85% 0 mm WeatherDisplay:10.37 W/m2 BKN
08:41 20.7 °C 19.7 °C 1016.8 hPa North 13.2 km/h   94% 0 mm WeatherDisplay:10.37 W/m2 BKN
08:46 20.8 °C 19.8 °C 1016.8 hPa North 13.2 km/h   94% 0 mm WeatherDisplay:10.37 W/m2 BKN
08:48 20.8 °C 19.8 °C 1016.8 hPa North 13.2 km/h   94% 0 mm WeatherDisplay:10.37 W/m2 BKN
08:53 20.8 °C 19.8 °C 1016.8 hPa North 13.2 km/h   94% 0 mm WeatherDisplay:10.37 W/m2 BKN
08:58 20.8 °C 19.7 °C 1016.8 hPa North 13.2 km/h   93% 0 mm WeatherDisplay:10.37 W/m2 BKN
09:03 20.9 °C 19.9 °C 1016.8 hPa North 13.2 km/h   94% 0 mm WeatherDisplay:10.37 W/m2 BKN
09:08 21.2 °C 20.2 °C 1016.8 hPa North 13.2 km/h   94% 0 mm WeatherDisplay:10.37 W/m2 BKN
09:13 21.2 °C 20.2 °C 1016.8 hPa North 13.2 km/h   94% 0 mm WeatherDisplay:10.37 W/m2 BKN
09:19 21.3 °C 20.3 °C 1016.8 hPa North 13.2 km/h   94% 0 mm WeatherDisplay:10.37 W/m2 BKN
09:24 21.4 °C 20.2 °C 1016.8 hPa North 13.2 km/h   93% 0 mm WeatherDisplay:10.37 W/m2 SCT
09:29 21.4 °C 20.2 °C 1016.8 hPa North 13.2 km/h   93% 0 mm WeatherDisplay:10.37 W/m2 SCT
09:34 21.4 °C 20.3 °C 1016.8 hPa North 13.2 km/h 13.2 km/h 93% 0 mm WeatherDisplay:10.37 W/m2 SCT
09:39 21.7 °C 20.5 °C 1016.8 hPa North 13.2 km/h   93% 0 mm WeatherDisplay:10.37 W/m2 SCT
09:44 21.8 °C 20.4 °C 1016.5 hPa North 13.2 km/h   92% 0 mm WeatherDisplay:10.37 W/m2 SCT
09:49 22 °C 20.8 °C 1016.5 hPa North 13.2 km/h   93% 0 mm WeatherDisplay:10.37 W/m2 SCT
09:54 22.2 °C 20.6 °C 1016.5 hPa North 13.2 km/h   91% 0 mm WeatherDisplay:10.37 W/m2 SCT
09:59 22.4 °C 20.8 °C 1016.5 hPa North 13.2 km/h 13.2 km/h 91% 0 mm WeatherDisplay:10.37 W/m2 SCT
10:04 22.6 °C 20.8 °C 1016.5 hPa North 13.2 km/h 13.2 km/h 90% 0 mm WeatherDisplay:10.37 W/m2 SCT
10:09 22.9 °C 21.2 °C 1016.5 hPa North 13.2 km/h   90% 0 mm WeatherDisplay:10.37 W/m2 SCT
10:14 23.4 °C 21.3 °C 1016.8 hPa North 13.2 km/h   88% 0 mm WeatherDisplay:10.37 W/m2 SCT
10:19 23.9 °C 21.8 °C 1016.5 hPa North 13.2 km/h   88% 0 mm WeatherDisplay:10.37 W/m2 SCT
10:24 24.2 °C 21.7 °C 1016.5 hPa North 13.2 km/h   86% 0 mm WeatherDisplay:10.37 W/m2 BKN
10:29 24.2 °C 20.9 °C 1016.5 hPa North 13.2 km/h   82% 0 mm WeatherDisplay:10.37 W/m2 BKN
10:34 24.2 °C 21.2 °C 1016.8 hPa North 13.2 km/h   83% 0 mm WeatherDisplay:10.37 W/m2 BKN
10:39 24.3 °C 21.3 °C 1016.5 hPa North 13.2 km/h   83% 0 mm WeatherDisplay:10.37 W/m2 BKN
10:44 24.4 °C 21.4 °C 1016.5 hPa North 13.2 km/h   83% 0 mm WeatherDisplay:10.37 W/m2 BKN
10:50 24.6 °C 21.6 °C 1016.5 hPa North 13.2 km/h 13.2 km/h 83% 0 mm WeatherDisplay:10.37 W/m2 BKN
10:55 24.7 °C 21 °C 1016.5 hPa Calm   1.6 km/h 80% 0 mm WeatherDisplay:10.37 W/m2 BKN
11:00 24.8 °C 21.3 °C 1016.5 hPa Calm   1.6 km/h 81% 0 mm WeatherDisplay:10.37 W/m2 BKN
11:05 25 °C 21.7 °C 1016.5 hPa Calm   1.6 km/h 82% 0 mm WeatherDisplay:10.37 W/m2 BKN
11:10 25 °C 21.1 °C 1016.5 hPa Calm   1.6 km/h 79% 0 mm WeatherDisplay:10.37 W/m2 BKN
11:15 25.1 °C 21.6 °C 1016.5 hPa Calm     81% 0 mm WeatherDisplay:10.37 W/m2 BKN
11:20 25.3 °C 21.8 °C 1016.1 hPa Calm   3.2 km/h 81% 0 mm WeatherDisplay:10.37 W/m2 BKN
11:25 25.4 °C 21.3 °C 1016.5 hPa Calm   1.6 km/h 78% 0 mm WeatherDisplay:10.37 W/m2 BKN
11:30 25.5 °C 21.8 °C 1016.5 hPa Calm   3.2 km/h 80% 0 mm WeatherDisplay:10.37 W/m2 BKN
11:35 25.6 °C 21.7 °C 1016.5 hPa Calm   1.6 km/h 79% 0 mm WeatherDisplay:10.37 W/m2 BKN
11:40 25.5 °C 21.6 °C 1016.1 hPa Calm   1.6 km/h 79% 0 mm WeatherDisplay:10.37 W/m2 BKN
11:45 25.4 °C 21.6 °C 1016.1 hPa West 13.2 km/h 13.2 km/h 79% 0 mm WeatherDisplay:10.37 W/m2 BKN
11:46 25.4 °C 21.6 °C 1016.1 hPa SSW 13.2 km/h 13.2 km/h 79% 0 mm WeatherDisplay:10.37 W/m2 BKN
11:51 25.6 °C 21.4 °C 1016.1 hPa NNW 13.2 km/h 13.2 km/h 78% 0 mm WeatherDisplay:10.37 W/m2 BKN
11:56 25.8 °C 21.7 °C 1016.1 hPa NNW 13.2 km/h 13.2 km/h 78% 0 mm WeatherDisplay:10.37 W/m2 BKN
12:01 25.9 °C 21.3 °C 1016.5 hPa SSW 13.2 km/h   76% 0 mm WeatherDisplay:10.37 W/m2 BKN
12:06 26 °C 22.1 °C 1016.5 hPa West 13.2 km/h   79% 0 mm WeatherDisplay:10.37 W/m2 BKN
12:11 26.3 °C 21.9 °C 1016.1 hPa North 13.2 km/h   77% 0 mm WeatherDisplay:10.37 W/m2 BKN
12:13 26.3 °C 22 °C 1016.5 hPa North 13.2 km/h   77% 0 mm WeatherDisplay:10.37 W/m2 BKN
12:18 26.4 °C 21.9 °C 1016.5 hPa NNW 13.2 km/h 13.2 km/h 76% 0 mm WeatherDisplay:10.37 W/m2 BKN
12:23 26.4 °C 21.9 °C 1016.5 hPa North 13.2 km/h   76% 0 mm WeatherDisplay:10.37 W/m2 BKN
12:28 26.6 °C 22 °C 1016.5 hPa SW 13.2 km/h   76% 0 mm WeatherDisplay:10.37 W/m2 BKN
12:33 26.6 °C 22.1 °C 1016.5 hPa NW 13.2 km/h 13.2 km/h 76% 0 mm WeatherDisplay:10.37 W/m2 BKN
12:36 26.8 °C 22 °C 1016.5 hPa NNW 13.2 km/h   75% 0 mm WeatherDisplay:10.37 W/m2 BKN
12:41 27.2 °C 22.1 °C 1016.5 hPa North 13.2 km/h 13.2 km/h 74% 0 mm WeatherDisplay:10.37 W/m2 BKN
12:46 27.4 °C 21.9 °C 1016.1 hPa ENE 13.2 km/h 13.2 km/h 72% 0 mm WeatherDisplay:10.37 W/m2 BKN
12:51 27.6 °C 22.3 °C 1016.5 hPa NE 13.2 km/h   73% 0 mm WeatherDisplay:10.37 W/m2 BKN
12:56 27.9 °C 23.1 °C 1016.5 hPa East 13.2 km/h 13.2 km/h 75% 0 mm WeatherDisplay:10.37 W/m2 BKN
13:01 28.2 °C 22.4 °C 1016.1 hPa WSW 13.2 km/h   71% 0 mm WeatherDisplay:10.37 W/m2 BKN
13:06 28.6 °C 22.8 °C 1016.1 hPa WNW 13.2 km/h 13.2 km/h 71% 0 mm WeatherDisplay:10.37 W/m2 BKN
13:11 28.9 °C 22.4 °C 1016.1 hPa WSW 13.2 km/h 13.2 km/h 68% 0 mm WeatherDisplay:10.37 W/m2 BKN
13:16 29.1 °C 22.3 °C 1016.1 hPa East 13.2 km/h 13.2 km/h 67% 0 mm WeatherDisplay:10.37 W/m2 BKN
13:22 29.2 °C 22.7 °C 1016.1 hPa ENE 13.2 km/h 13.2 km/h 68% 0 mm WeatherDisplay:10.37 W/m2 BKN
13:27 29.3 °C 23.3 °C 1016.1 hPa North 13.2 km/h 13.2 km/h 70% 0 mm WeatherDisplay:10.37 W/m2 BKN
13:32 29.3 °C 22.8 °C 1016.5 hPa North 13.2 km/h   68% 0 mm WeatherDisplay:10.37 W/m2 BKN
13:33 29.3 °C 23 °C 1016.5 hPa North 13.2 km/h   69% 0 mm WeatherDisplay:10.37 W/m2 BKN
13:38 29.3 °C 23 °C 1016.5 hPa ENE 13.2 km/h 13.2 km/h 69% 0 mm WeatherDisplay:10.37 W/m2 BKN
13:43 29.2 °C 23.1 °C 1016.1 hPa ENE 13.2 km/h 13.2 km/h 70% 0 mm WeatherDisplay:10.37 W/m2 BKN
13:48 29.1 °C 22.3 °C 1016.1 hPa East 13.2 km/h   67% 0 mm WeatherDisplay:10.37 W/m2 BKN
13:49 29.2 °C 22.7 °C 1016.1 hPa East 13.2 km/h   68% 0 mm WeatherDisplay:10.37 W/m2 BKN
13:55 29.3 °C 23 °C 1016.1 hPa West 13.2 km/h   69% 0 mm WeatherDisplay:10.37 W/m2 BKN
14:00 29.4 °C 23.2 °C 1016.1 hPa Calm   1.6 km/h 69% 0 mm WeatherDisplay:10.37 W/m2 BKN
14:05 29.5 °C 22.9 °C 1015.8 hPa Calm   4.8 km/h 68% 0 mm WeatherDisplay:10.37 W/m2 BKN
14:10 29.6 °C 22.6 °C 1015.8 hPa Calm   1.6 km/h 66% 0 mm WeatherDisplay:10.37 W/m2 BKN
14:15 29.7 °C 22.7 °C 1015.8 hPa Calm   1.6 km/h 66% 0 mm WeatherDisplay:10.37 W/m2 BKN
14:20 29.8 °C 23.2 °C 1015.8 hPa SSW 13.2 km/h   68% 0 mm WeatherDisplay:10.37 W/m2 BKN
14:25 29.9 °C 23.6 °C 1015.8 hPa NW 13.2 km/h 13.2 km/h 69% 0 mm WeatherDisplay:10.37 W/m2 BKN
14:30 29.8 °C 22.8 °C 1015.8 hPa Calm   1.6 km/h 66% 0 mm WeatherDisplay:10.37 W/m2 BKN
14:35 29.8 °C 23 °C 1015.8 hPa East 13.2 km/h   67% 0 mm WeatherDisplay:10.37 W/m2 BKN
14:40 29.9 °C 22.4 °C 1015.8 hPa ENE 13.2 km/h   64% 0 mm WeatherDisplay:10.37 W/m2 BKN
14:45 29.8 °C 22.5 °C 1015.5 hPa South 13.2 km/h 13.2 km/h 65% 0 mm WeatherDisplay:10.37 W/m2 BKN
14:50 29.6 °C 23.3 °C 1015.5 hPa WSW 13.2 km/h   69% 0 mm WeatherDisplay:10.37 W/m2 BKN
14:55 29.6 °C 23 °C 1015.5 hPa NNW 13.2 km/h   68% 0 mm WeatherDisplay:10.37 W/m2 BKN
15:00 29.5 °C 22.9 °C 1015.5 hPa NNE 13.2 km/h   68% 0 mm WeatherDisplay:10.37 W/m2 BKN
15:05 29.4 °C 22.9 °C 1015.5 hPa West 13.2 km/h   68% 0 mm WeatherDisplay:10.37 W/m2 BKN
15:10 29.3 °C 22.1 °C 1015.1 hPa NW 13.2 km/h   65% 0 mm WeatherDisplay:10.37 W/m2 BKN
15:15 29.3 °C 22.5 °C 1015.1 hPa ENE 13.2 km/h 13.2 km/h 67% 0 mm WeatherDisplay:10.37 W/m2 BKN
15:20 29.2 °C 23.2 °C 1015.5 hPa North 13.2 km/h 13.2 km/h 70% 0 mm WeatherDisplay:10.37 W/m2 BKN
15:25 29.2 °C 23.2 °C 1015.1 hPa North 13.2 km/h   70% 0 mm WeatherDisplay:10.37 W/m2 BKN
15:30 29.3 °C 22.8 °C 1015.1 hPa ESE 13.2 km/h   68% 0 mm WeatherDisplay:10.37 W/m2 BKN
15:35 29.3 °C 22 °C 1015.1 hPa SSW 13.2 km/h   65% 0 mm WeatherDisplay:10.37 W/m2 BKN
15:41 29.3 °C 21.8 °C 1014.8 hPa WSW 13.2 km/h   64% 0 mm WeatherDisplay:10.37 W/m2 BKN
15:46 29.1 °C 22.1 °C 1014.8 hPa WSW 13.2 km/h   66% 0 mm WeatherDisplay:10.37 W/m2 BKN
15:51 29.1 °C 22.3 °C 1014.8 hPa WSW 13.2 km/h   67% 0 mm WeatherDisplay:10.37 W/m2 BKN
15:56 29 °C 22.5 °C 1014.8 hPa SW 13.2 km/h   68% 0 mm WeatherDisplay:10.37 W/m2 BKN
16:01 29 °C 22.7 °C 1014.4 hPa SW 13.2 km/h   69% 0 mm WeatherDisplay:10.37 W/m2 BKN
16:06 28.9 °C 22.2 °C 1014.4 hPa West 13.2 km/h   67% 0 mm WeatherDisplay:10.37 W/m2 BKN
16:11 28.9 °C 22.2 °C 1014.4 hPa West 13.2 km/h   67% 0 mm WeatherDisplay:10.37 W/m2 BKN
16:16 29.1 °C 22.1 °C 1014.4 hPa West 13.2 km/h   66% 0 mm WeatherDisplay:10.37 W/m2 BKN
16:20 29.2 °C 21.9 °C 1014.4 hPa West 13.2 km/h   65% 0 mm WeatherDisplay:10.37 W/m2 BKN
16:25 29.3 °C 23 °C 1014.4 hPa West 13.2 km/h   69% 0 mm WeatherDisplay:10.37 W/m2 BKN
16:30 29.4 °C 22.4 °C 1014.4 hPa NW 13.2 km/h   66% 0 mm WeatherDisplay:10.37 W/m2 BKN
16:35 29.4 °C 22.6 °C 1014.4 hPa NW 13.2 km/h   67% 0 mm WeatherDisplay:10.37 W/m2 BKN
16:40 29.2 °C 22.4 °C 1014.4 hPa NW 13.2 km/h   67% 0 mm WeatherDisplay:10.37 W/m2 BKN
16:45 29.2 °C 22.7 °C 1014.8 hPa NNW 13.2 km/h   68% 0 mm WeatherDisplay:10.37 W/m2 BKN
16:50 29.2 °C 22.7 °C 1014.8 hPa NW 13.2 km/h   68% 0 mm WeatherDisplay:10.37 W/m2 BKN
16:55 29.1 °C 22.8 °C 1014.4 hPa NW 13.2 km/h   69% 0 mm WeatherDisplay:10.37 W/m2 BKN
17:00 28.9 °C 22.7 °C 1014.4 hPa NW 13.2 km/h   69% 0 mm WeatherDisplay:10.37 W/m2 BKN
17:05 28.9 °C 23.3 °C 1014.4 hPa NE 13.2 km/h   72% 0 mm WeatherDisplay:10.37 W/m2 BKN
17:10 28.9 °C 23.8 °C 1014.4 hPa NE 13.2 km/h   74% 0 mm WeatherDisplay:10.37 W/m2 BKN
17:15 28.9 °C 23.4 °C 1014.1 hPa NE 13.2 km/h   72% 0 mm WeatherDisplay:10.37 W/m2 BKN
17:20 28.9 °C 22.9 °C 1014.1 hPa NE 13.2 km/h   70% 0 mm WeatherDisplay:10.37 W/m2 BKN
17:25 28.9 °C 23.6 °C 1014.1 hPa NE 13.2 km/h   73% 0 mm WeatherDisplay:10.37 W/m2 BKN
17:30 28.9 °C 23.4 °C 1014.4 hPa NE 13.2 km/h   72% 0 mm WeatherDisplay:10.37 W/m2 BKN
17:36 28.7 °C 23.2 °C 1014.4 hPa NE 13.2 km/h   72% 0 mm WeatherDisplay:10.37 W/m2 BKN
17:41 28.7 °C 23.3 °C 1014.4 hPa NE 13.2 km/h   73% 0 mm WeatherDisplay:10.37 W/m2 BKN
17:46 28.7 °C 22.7 °C 1014.4 hPa NE 13.2 km/h   70% 0 mm WeatherDisplay:10.37 W/m2 BKN
17:51 28.8 °C 23.3 °C 1014.4 hPa NE 13.2 km/h   72% 0 mm WeatherDisplay:10.37 W/m2 BKN
17:56 28.9 °C 23.1 °C 1014.4 hPa NE 13.2 km/h   71% 0 mm WeatherDisplay:10.37 W/m2 BKN
18:01 28.9 °C 23.4 °C 1014.4 hPa NE 13.2 km/h   72% 0 mm WeatherDisplay:10.37 W/m2 BKN
18:06 28.9 °C 23.1 °C 1014.4 hPa NE 13.2 km/h   71% 0 mm WeatherDisplay:10.37 W/m2 BKN
18:11 28.7 °C 23.1 °C 1014.8 hPa NE 13.2 km/h 13.2 km/h 72% 0 mm WeatherDisplay:10.37 W/m2 BKN
18:12 28.6 °C 23.1 °C 1014.8 hPa NE 13.2 km/h   72% 0 mm WeatherDisplay:10.37 W/m2 BKN
18:17 28.3 °C 23 °C 1014.8 hPa NE 13.2 km/h   73% 0 mm WeatherDisplay:10.37 W/m2 BKN
18:22 27.9 °C 22.4 °C 1014.8 hPa NE 13.2 km/h   72% 0 mm WeatherDisplay:10.37 W/m2 BKN
18:27 27.7 °C 22.4 °C 1014.8 hPa NE 13.2 km/h   73% 0 mm WeatherDisplay:10.37 W/m2 BKN
18:32 27.6 °C 22.3 °C 1014.8 hPa NE 13.2 km/h   73% 0 mm WeatherDisplay:10.37 W/m2 BKN
18:37 27.6 °C 22.5 °C 1015.1 hPa NE 13.2 km/h   74% 0 mm WeatherDisplay:10.37 W/m2 BKN
18:42 27.5 °C 22.7 °C 1015.1 hPa NE 13.2 km/h   75% 0 mm WeatherDisplay:10.37 W/m2 BKN
18:47 27.4 °C 22.4 °C 1015.1 hPa NE 13.2 km/h   74% 0 mm WeatherDisplay:10.37 W/m2 BKN
18:52 27.4 °C 22.8 °C 1015.1 hPa NE 13.2 km/h   76% 0 mm WeatherDisplay:10.37 W/m2 BKN
18:58 27.2 °C 22.3 °C 1015.5 hPa West 13.2 km/h 13.2 km/h 75% 0 mm WeatherDisplay:10.37 W/m2 BKN
19:03 26.6 °C 20 °C 1015.5 hPa WNW 13.2 km/h 13.2 km/h 67% 0 mm WeatherDisplay:10.37 W/m2 BKN
19:08 25.9 °C 18.3 °C 1015.5 hPa NE 13.2 km/h 13.2 km/h 63% 0 mm WeatherDisplay:10.37 W/m2 BKN
19:13 25.4 °C 18.1 °C 1015.8 hPa WNW 13.2 km/h 13.2 km/h 64% 0 mm WeatherDisplay:10.37 W/m2 BKN
19:19 25.2 °C 17.9 °C 1015.8 hPa WNW 13.2 km/h 13.2 km/h 64% 0 mm WeatherDisplay:10.37 W/m2 BKN
19:24 24.9 °C 18.2 °C 1016.1 hPa WNW 13.2 km/h   66% 0 mm WeatherDisplay:10.37 W/m2 BKN
19:29 24.7 °C 18.1 °C 1016.1 hPa West 13.2 km/h 13.2 km/h 67% 0 mm WeatherDisplay:10.37 W/m2 BKN
19:34 24.3 °C 18.7 °C 1016.1 hPa NW 13.2 km/h 13.2 km/h 71% 0 mm WeatherDisplay:10.37 W/m2 BKN
19:39 24.1 °C 18.7 °C 1016.1 hPa NW 13.2 km/h   72% 0 mm WeatherDisplay:10.37 W/m2 BKN
19:44 23.8 °C 18.9 °C 1016.1 hPa WNW 13.2 km/h   74% 0 mm WeatherDisplay:10.37 W/m2 BKN
19:49 23.6 °C 18.7 °C 1016.1 hPa WNW 13.2 km/h   74% 0 mm WeatherDisplay:10.37 W/m2 BKN
19:54 23.5 °C 18.6 °C 1016.1 hPa WNW 13.2 km/h   74% 0 mm WeatherDisplay:10.37 W/m2 OVC
19:59 23.4 °C 18.1 °C 1015.8 hPa West 13.2 km/h   72% 0 mm WeatherDisplay:10.37 W/m2 OVC
20:04 23.4 °C 18.1 °C 1015.5 hPa West 13.2 km/h   72% 0 mm WeatherDisplay:10.37 W/m2 OVC
20:10 23.4 °C 18.1 °C 1015.5 hPa West 13.2 km/h   72% 0 mm WeatherDisplay:10.37 W/m2 OVC
20:15 23.3 °C 18 °C 1015.5 hPa SW 13.2 km/h   72% 0 mm WeatherDisplay:10.37 W/m2 OVC
20:20 23.3 °C 18.2 °C 1015.5 hPa Calm     73% 0 mm WeatherDisplay:10.37 W/m2 OVC
20:25 23.2 °C 17.9 °C 1015.8 hPa Calm     72% 0 mm WeatherDisplay:10.37 W/m2 OVC
20:30 23.2 °C 18.1 °C 1016.1 hPa Calm     73% 0 mm WeatherDisplay:10.37 W/m2 OVC
20:35 23.1 °C 18.2 °C 1016.1 hPa Calm   1.6 km/h 74% 0 mm WeatherDisplay:10.37 W/m2 OVC
20:40 23.1 °C 18.2 °C 1016.1 hPa Calm     74% 0 mm WeatherDisplay:10.37 W/m2 OVC
20:45 23.1 °C 18.4 °C 1016.1 hPa Calm   1.6 km/h 75% 0 mm WeatherDisplay:10.37 W/m2 OVC
20:50 23 °C 18.3 °C 1016.1 hPa Calm     75% 0 mm WeatherDisplay:10.37 W/m2 OVC
20:55 22.9 °C 18.4 °C 1016.1 hPa Calm     76% 0 mm WeatherDisplay:10.37 W/m2 OVC
21:00 22.8 °C 18.6 °C 1016.1 hPa Calm     77% 0 mm WeatherDisplay:10.37 W/m2 OVC
21:05 22.7 °C 18.5 °C 1016.1 hPa North 13.2 km/h   77% 0 mm WeatherDisplay:10.37 W/m2 OVC
21:10 22.6 °C 18.6 °C 1016.1 hPa Calm     78% 0 mm WeatherDisplay:10.37 W/m2 OVC
21:15 22.5 °C 18.7 °C 1016.5 hPa Calm     79% 0 mm WeatherDisplay:10.37 W/m2 OVC
21:20 22.4 °C 18.8 °C 1016.5 hPa Calm   1.6 km/h 80% 0 mm WeatherDisplay:10.37 W/m2 BKN
21:25 22.3 °C 18.7 °C 1016.5 hPa Calm   1.6 km/h 80% 0 mm WeatherDisplay:10.37 W/m2 BKN
21:30 22.2 °C 18.6 °C 1016.1 hPa Calm     80% 0 mm WeatherDisplay:10.37 W/m2 BKN
21:35 22.1 °C 18.7 °C 1016.1 hPa NNE 13.2 km/h   81% 0 mm WeatherDisplay:10.37 W/m2 BKN
21:40 22.1 °C 18.8 °C 1016.5 hPa Calm     82% 0 mm WeatherDisplay:10.37 W/m2 BKN
21:45 22 °C 18.8 °C 1016.8 hPa Calm   1.6 km/h 82% 0 mm WeatherDisplay:10.37 W/m2 BKN
21:50 21.9 °C 18.7 °C 1016.8 hPa Calm   1.6 km/h 82% 0 mm WeatherDisplay:10.37 W/m2 BKN
21:55 21.9 °C 18.7 °C 1016.5 hPa Calm     82% 0 mm WeatherDisplay:10.37 W/m2 BKN
22:00 21.8 °C 18.8 °C 1016.8 hPa NNE 13.2 km/h   83% 0 mm WeatherDisplay:10.37 W/m2 BKN
22:05 21.8 °C 18.8 °C 1017.2 hPa Calm     83% 0 mm WeatherDisplay:10.37 W/m2 BKN
22:10 21.7 °C 18.7 °C 1017.2 hPa Calm     83% 0 mm WeatherDisplay:10.37 W/m2 BKN
22:15 21.7 °C 18.8 °C 1017.2 hPa Calm     84% 0 mm WeatherDisplay:10.37 W/m2 BKN
22:20 21.6 °C 18.6 °C 1016.8 hPa Calm     83% 0 mm WeatherDisplay:10.37 W/m2 BKN
22:25 21.5 °C 18.7 °C 1016.8 hPa NNE 13.2 km/h   84% 0 mm WeatherDisplay:10.37 W/m2 BKN
22:30 21.4 °C 18.6 °C 1016.8 hPa NNE 13.2 km/h   84% 0 mm WeatherDisplay:10.37 W/m2 BKN
22:31 21.4 °C 18.6 °C 1016.8 hPa NNE 13.2 km/h   84% 0 mm WeatherDisplay:10.37 W/m2 BKN
22:36 21.3 °C 18.5 °C 1016.8 hPa NNE 13.2 km/h   84% 0 mm WeatherDisplay:10.37 W/m2 BKN
22:41 21.3 °C 18.4 °C 1016.8 hPa NNE 13.2 km/h   84% 0 mm WeatherDisplay:10.37 W/m2 BKN
22:46 21.2 °C 18.6 °C 1016.8 hPa NNE 13.2 km/h   85% 0 mm WeatherDisplay:10.37 W/m2 BKN
22:51 21.1 °C 18.5 °C 1017.2 hPa NNE 13.2 km/h   85% 0 mm WeatherDisplay:10.37 W/m2 BKN
22:56 21.1 °C 18.6 °C 1017.2 hPa NNE 13.2 km/h   86% 0 mm WeatherDisplay:10.37 W/m2 BKN
23:01 21 °C 18.6 °C 1017.2 hPa NNE 13.2 km/h   86% 0 mm WeatherDisplay:10.37 W/m2 BKN
23:06 20.9 °C 18.5 °C 1017.2 hPa NNE 13.2 km/h   86% 0 mm WeatherDisplay:10.37 W/m2 BKN
23:11 20.9 °C 18.4 °C 1017.5 hPa NNE 13.2 km/h   86% 0 mm WeatherDisplay:10.37 W/m2 BKN
23:16 20.8 °C 18.4 °C 1017.5 hPa NNE 13.2 km/h   86% 0 mm WeatherDisplay:10.37 W/m2 BKN
23:21 20.8 °C 18.6 °C 1017.2 hPa NNE 13.2 km/h   87% 0 mm WeatherDisplay:10.37 W/m2 BKN
23:27 20.8 °C 18.6 °C 1017.2 hPa NNE 13.2 km/h   87% 0 mm WeatherDisplay:10.37 W/m2 BKN
23:32 20.7 °C 18.5 °C 1017.2 hPa NNE 13.2 km/h   87% 0 mm WeatherDisplay:10.37 W/m2 BKN
23:37 20.7 °C 18.5 °C 1017.2 hPa NNE 13.2 km/h   87% 0 mm WeatherDisplay:10.37 W/m2 BKN
23:42 20.7 °C 18.4 °C 1017.2 hPa NNE 13.2 km/h   87% 0 mm WeatherDisplay:10.37 W/m2 BKN
23:47 20.6 °C 18.4 °C 1017.2 hPa NNE 13.2 km/h   87% 0 mm WeatherDisplay:10.37 W/m2 BKN
23:52 20.6 °C 18.1 °C 1017.2 hPa NNE 13.2 km/h   86% 0 mm WeatherDisplay:10.37 W/m2 BKN
23:57 20.6 °C 18.1 °C 1017.2 hPa NNE 13.2 km/h   86% 0 mm WeatherDisplay:10.37 W/m2 BKN
Piedmont Bend
Compliments of Weather Underground - 4 mb